createdAt,value
2018-04-15T11:58:05.818Z,53.70
2018-04-15T12:00:33.615Z,54.10
2018-04-15T12:03:01.494Z,50.83
2018-04-15T12:05:29.280Z,50.43
2018-04-15T12:07:57.118Z,54.07
2018-04-15T12:10:30.610Z,51.13
2018-04-15T12:12:58.395Z,57.90
2018-04-15T12:15:26.123Z,53.53
2018-04-15T12:17:54.887Z,53.40
2018-04-15T12:20:22.660Z,53.87
2018-04-15T12:22:50.414Z,48.57
2018-04-15T12:25:18.188Z,47.13
2018-04-15T12:27:45.980Z,56.20
2018-04-15T12:30:13.708Z,52.33
2018-04-15T12:32:41.492Z,52.43
2018-04-15T12:35:09.276Z,47.60
2018-04-15T12:37:37.180Z,52.13
2018-04-15T12:40:04.939Z,52.17
2018-04-15T12:42:32.728Z,51.93
2018-04-15T12:45:11.932Z,47.63
2018-04-15T12:48:00.197Z,52.20
2018-04-15T12:50:28.808Z,50.10
2018-04-15T12:52:56.666Z,47.03
2018-04-15T12:55:24.403Z,51.23
2018-04-15T12:57:52.248Z,47.30
2018-04-15T13:00:19.944Z,47.67
2018-04-15T13:02:47.813Z,52.20
2018-04-15T13:05:15.636Z,48.67
2018-04-15T13:07:43.413Z,50.50
2018-04-15T13:10:11.134Z,48.10
2018-04-15T13:12:38.928Z,46.23
2018-04-15T13:15:06.760Z,50.10
2018-04-15T13:17:34.560Z,52.10
2018-04-15T13:20:02.451Z,53.00
2018-04-15T13:22:30.306Z,50.37
2018-04-15T13:24:58.196Z,49.10
2018-04-15T13:27:26.012Z,54.87
2018-04-15T13:29:53.812Z,55.17
2018-04-15T13:32:22.736Z,53.53
2018-04-15T13:34:50.672Z,52.03
2018-04-15T13:37:18.640Z,60.83
2018-04-15T13:39:46.580Z,55.13
2018-04-15T13:42:14.424Z,56.90
2018-04-15T13:44:42.315Z,55.00
2018-04-15T13:47:10.265Z,55.17
2018-04-15T13:49:38.084Z,50.00
2018-04-15T13:52:06.054Z,51.43
2018-04-15T13:54:33.888Z,50.93
2018-04-15T13:57:01.789Z,52.40
2018-04-15T13:59:29.692Z,48.87
2018-04-15T14:01:57.549Z,54.17
2018-04-15T14:04:25.524Z,50.80
2018-04-15T14:06:53.332Z,57.00
2018-04-15T14:09:21.240Z,57.30
2018-04-15T14:11:49.032Z,49.87
2018-04-15T14:14:16.927Z,52.10
2018-04-15T14:16:44.768Z,52.73
2018-04-15T14:19:12.680Z,53.03
2018-04-15T14:21:40.603Z,46.60
2018-04-15T14:24:08.566Z,48.20
2018-04-15T14:26:36.357Z,48.10
2018-04-15T14:29:04.256Z,50.73
2018-04-15T14:31:31.993Z,46.20
2018-04-15T14:33:59.955Z,45.33
2018-04-15T14:36:27.744Z,47.70
2018-04-15T14:38:55.696Z,49.60
2018-04-15T14:41:23.524Z,47.83
2018-04-15T14:43:51.319Z,47.63
2018-04-15T14:46:19.004Z,52.00
2018-04-15T14:48:46.800Z,49.33
2018-04-15T14:51:14.663Z,45.17
2018-04-15T14:53:42.521Z,51.20
2018-04-15T14:56:10.288Z,49.83
2018-04-15T14:58:38.144Z,55.30
2018-04-15T15:01:05.942Z,48.30
2018-04-15T15:03:33.858Z,47.73
2018-04-15T15:06:01.618Z,53.20
2018-04-15T15:08:29.558Z,48.60
2018-04-15T15:10:57.377Z,42.37
2018-04-15T15:13:25.303Z,49.73
2018-04-15T15:15:53.235Z,48.30
2018-04-15T15:18:21.150Z,41.00
2018-04-15T15:20:48.946Z,48.00
2018-04-15T15:23:16.850Z,46.90
2018-04-15T15:25:44.605Z,46.80
2018-04-15T15:28:12.558Z,48.63
2018-04-15T15:30:40.489Z,46.87
2018-04-15T15:33:08.382Z,48.63
2018-04-15T15:35:36.305Z,45.10
2018-04-15T15:38:04.218Z,48.40
2018-04-15T15:40:32.015Z,44.20
2018-04-15T15:42:59.904Z,44.93
2018-04-15T15:45:27.783Z,46.30
2018-04-15T15:47:55.710Z,43.40
2018-04-15T15:50:23.549Z,45.10
2018-04-15T15:52:51.467Z,43.93
2018-04-15T15:55:19.195Z,43.10
2018-04-15T15:57:46.996Z,51.13
2018-04-15T16:00:14.992Z,49.60
2018-04-15T16:02:42.732Z,45.03
2018-04-15T16:05:10.629Z,49.33
2018-04-15T16:07:38.485Z,49.40
2018-04-15T16:10:06.473Z,47.43
2018-04-15T16:12:34.316Z,57.10
2018-04-15T16:15:02.150Z,44.30
2018-04-15T16:17:29.988Z,49.97
2018-04-15T16:19:57.950Z,47.50
2018-04-15T16:22:25.802Z,48.03
2018-04-15T16:24:53.729Z,56.03
2018-04-15T16:27:21.549Z,58.27
2018-04-15T16:29:49.509Z,52.10
2018-04-15T16:32:17.271Z,52.97
2018-04-15T16:34:45.211Z,53.20
2018-04-15T16:37:12.964Z,52.43
2018-04-15T16:39:40.815Z,50.97
2018-04-15T16:42:08.672Z,57.27
2018-04-15T16:44:36.489Z,54.47
2018-04-15T16:47:04.316Z,49.50
2018-04-15T16:49:32.178Z,49.83
2018-04-15T16:51:59.961Z,52.87
2018-04-15T16:54:27.757Z,51.63
2018-04-15T16:56:55.494Z,55.13
2018-04-15T16:59:23.290Z,46.90
2018-04-15T17:01:51.061Z,48.27
2018-04-15T17:04:18.851Z,48.73
2018-04-15T17:06:46.655Z,57.13
2018-04-15T17:09:14.554Z,54.63
2018-04-15T17:11:42.389Z,51.57
2018-04-15T17:14:10.345Z,52.67
2018-04-15T17:16:38.355Z,51.63
2018-04-15T17:19:06.312Z,50.83
2018-04-15T17:21:34.175Z,49.40
2018-04-15T17:24:02.097Z,57.30
2018-04-15T17:26:30.021Z,55.33
2018-04-15T17:28:57.954Z,54.13
2018-04-15T17:31:25.706Z,52.97
2018-04-15T17:33:53.558Z,53.53
2018-04-15T17:36:21.444Z,49.60
2018-04-15T17:38:49.418Z,55.67
2018-04-15T17:41:17.204Z,58.47
2018-04-15T17:43:58.856Z,51.10
2018-04-15T17:46:38.155Z,53.07
2018-04-15T17:49:06.781Z,57.33
2018-04-15T17:51:34.586Z,56.80
2018-04-15T17:54:02.478Z,53.50
2018-04-15T17:56:30.278Z,57.60
2018-04-15T17:58:58.108Z,57.03
2018-04-15T18:01:25.876Z,55.73
2018-04-15T18:03:53.732Z,53.93
2018-04-15T18:06:21.501Z,54.73
2018-04-15T18:08:49.333Z,57.97
2018-04-15T18:11:17.057Z,56.57
2018-04-15T18:13:45.011Z,59.20
2018-04-15T18:16:12.833Z,57.70
2018-04-15T18:18:40.807Z,57.30
2018-04-15T18:21:08.689Z,57.10
2018-04-15T18:23:36.597Z,54.37
2018-04-15T18:26:04.406Z,55.37
2018-04-15T18:28:32.264Z,62.13
2018-04-15T18:31:00.140Z,57.33
2018-04-15T18:33:28.090Z,58.57
2018-04-15T18:35:56.190Z,62.40
2018-04-15T18:38:24.038Z,63.87
2018-04-15T18:40:51.960Z,64.43
2018-04-15T18:43:19.873Z,71.03
2018-04-15T18:45:47.917Z,68.73
2018-04-15T18:48:15.762Z,73.40
2018-04-15T18:50:43.774Z,72.43
2018-04-15T18:53:11.646Z,72.23
2018-04-15T18:55:39.485Z,62.80
2018-04-15T18:58:07.357Z,64.00
2018-04-15T19:00:35.182Z,62.53
2018-04-15T19:03:02.964Z,94.00
2018-04-15T19:08:03.358Z,89.13
2018-04-15T19:10:31.283Z,84.03
2018-04-15T19:12:59.133Z,90.83
2018-04-15T19:15:27.085Z,87.07
2018-04-15T19:17:54.909Z,71.97
2018-04-15T19:20:22.858Z,66.60
2018-04-15T19:22:50.706Z,80.67
2018-04-15T19:25:18.635Z,85.93
2018-04-15T19:27:46.537Z,97.77
2018-04-15T19:30:14.451Z,121.70
2018-04-15T19:32:42.329Z,82.53
2018-04-15T19:35:10.184Z,99.67
2018-04-15T19:37:37.976Z,88.20
2018-04-15T19:40:05.833Z,55.80
2018-04-15T19:42:33.678Z,58.80
2018-04-15T19:45:01.578Z,68.17
2018-04-15T19:47:29.498Z,69.97
2018-04-15T19:49:57.410Z,72.80
2018-04-15T19:52:25.184Z,69.30
2018-04-15T19:54:52.987Z,77.37
2018-04-15T19:57:20.917Z,78.47
2018-04-15T19:59:48.878Z,79.60
2018-04-15T20:02:16.658Z,185.03
2018-04-15T20:04:44.471Z,295.77
2018-04-15T20:07:12.291Z,102.73
2018-04-15T20:09:40.146Z,85.10
2018-04-15T20:12:07.916Z,705.80
2018-04-15T20:14:35.753Z,453.17
2018-04-15T20:17:03.650Z,166.40
2018-04-15T20:19:31.553Z,111.23
2018-04-15T20:21:59.541Z,103.13
2018-04-15T20:24:27.502Z,150.93
2018-04-15T20:26:55.313Z,130.50
2018-04-15T20:29:23.243Z,108.43
2018-04-15T20:31:51.211Z,171.67
2018-04-15T20:34:19.214Z,144.27
2018-04-15T20:36:47.090Z,157.90
2018-04-15T20:39:14.995Z,172.53
2018-04-15T20:41:43.038Z,199.03
2018-04-15T20:44:10.829Z,202.93
2018-04-15T20:46:38.658Z,216.40
2018-04-15T20:49:06.569Z,203.43
2018-04-15T20:51:34.476Z,225.00
2018-04-15T20:54:02.272Z,212.97
2018-04-15T20:56:30.155Z,232.27
2018-04-15T20:58:58.042Z,270.80
2018-04-15T21:01:25.903Z,197.10
2018-04-15T21:03:53.773Z,135.53
2018-04-15T21:06:21.798Z,539.80
2018-04-15T21:08:49.634Z,201.17
2018-04-15T21:11:17.558Z,353.57
2018-04-15T21:13:45.430Z,183.93
2018-04-15T21:16:13.382Z,125.23
2018-04-15T21:18:41.329Z,304.40
2018-04-15T21:21:09.293Z,201.80
2018-04-15T21:23:37.203Z,104.13
2018-04-15T21:26:05.142Z,401.63
2018-04-15T21:28:32.979Z,101.50
2018-04-15T21:31:00.897Z,94.53
2018-04-15T21:33:28.742Z,90.50
2018-04-15T21:35:56.702Z,76.80
2018-04-15T21:38:24.670Z,304.27
2018-04-15T21:40:52.631Z,217.83
2018-04-15T21:43:20.512Z,73.03
2018-04-15T21:45:48.445Z,126.00
2018-04-15T21:48:16.280Z,108.57
2018-04-15T21:50:44.174Z,199.70
2018-04-15T21:53:12.177Z,124.73
2018-04-15T21:55:40.054Z,164.67
2018-04-15T21:58:07.961Z,213.07
2018-04-15T22:00:35.837Z,186.97
2018-04-15T22:03:03.766Z,123.57
2018-04-15T22:05:31.717Z,156.23
2018-04-15T22:07:59.623Z,169.00
2018-04-15T22:10:27.445Z,158.97
2018-04-15T22:13:05.162Z,148.47
2018-04-15T22:15:33.045Z,112.10
2018-04-15T22:18:00.929Z,62.60
2018-04-15T22:20:28.805Z,53.50
2018-04-15T22:22:56.708Z,72.37
2018-04-15T22:25:24.677Z,105.83
2018-04-15T22:27:52.580Z,110.20
2018-04-15T22:30:20.443Z,190.10
2018-04-15T22:32:48.265Z,307.60
2018-04-15T22:35:16.233Z,135.77
2018-04-15T22:37:44.163Z,128.40
2018-04-15T22:40:11.946Z,175.47
2018-04-15T22:42:39.795Z,143.63
2018-04-15T22:45:07.652Z,183.50
2018-04-15T22:47:35.666Z,145.20
2018-04-15T22:50:09.053Z,92.20
2018-04-15T22:52:37.013Z,87.67
2018-04-15T22:55:04.821Z,59.80
2018-04-15T22:57:32.689Z,54.57
2018-04-15T23:00:00.438Z,388.53
2018-04-15T23:02:28.298Z,590.10
2018-04-15T23:04:56.066Z,823.57
2018-04-15T23:07:23.954Z,518.40
2018-04-15T23:09:51.931Z,452.73
2018-04-15T23:12:19.775Z,357.77
2018-04-15T23:14:47.619Z,202.20
2018-04-15T23:17:15.558Z,457.03
2018-04-15T23:19:43.393Z,180.10
2018-04-15T23:22:11.307Z,101.93
2018-04-15T23:24:39.112Z,77.77
2018-04-15T23:27:07.010Z,274.33
2018-04-15T23:29:34.846Z,282.10
2018-04-15T23:32:02.769Z,91.13
2018-04-15T23:34:30.594Z,97.73
2018-04-15T23:36:58.542Z,84.67
2018-04-15T23:39:26.387Z,69.80
2018-04-15T23:41:54.299Z,70.53
2018-04-15T23:44:22.191Z,80.43
2018-04-15T23:46:50.090Z,65.33
2018-04-15T23:49:17.949Z,58.33
2018-04-15T23:51:45.853Z,55.77
2018-04-15T23:54:13.720Z,55.50
2018-04-15T23:56:41.710Z,53.50
2018-04-15T23:59:09.626Z,65.50
